• Join FlightAware (Why Join?)
  • Login
  • US Flag 
05:54AM EDT


 

Airport Tracker/Info


-or-


 

Live Flight TrackerFlight Track Log ✈ DAL6057 ✈ 13-Apr-2013 ✈ KJFK - CYUL

Flight Track Log - Related Links

Times and Time Zones

All times are in EDT time to prevent confusion due to time zone crossing. See the DAL6057 flight status page for this flight to view local times or setup timezone preferences in your user account.

Time Position Orientation Groundspeed Altitude Reporting Facility
EDT Latitude Longitude Course Direction KTS MPH feet Rate Location/Type
08:00PM 40.5833 -73.8167 27° Northeast 193 222 2,600  Level New York TRACON
08:01PM 40.5500 -73.7500 123° Southeast 270 311 4,600 2,280 Climbing New York TRACON
08:02PM 40.6000 -73.6667 52° Northeast 281 323 7,200 2,160 Climbing New York TRACON
08:04PM 40.7425 -73.5439 33° Northeast 299 344 11,600 1,800 Climbing Boston Center
08:05PM 41.1420 -73.4831 27° Northeast  Level FlightAware Approximate
08:05PM 40.8344 -73.5128 14° North 305 351 13,200  Level Boston Center
08:06PM 40.9325 -73.4842 12° North 325 374 14,800 1,560 Climbing Boston Center
08:07PM 41.0203 -73.4581 13° North 355 409 16,300 1,500 Climbing Boston Center
08:08PM 41.1353 -73.4239 13° North 381 438 17,900 1,260 Climbing Boston Center
08:09PM 41.2208 -73.3950 14° North 386 444 18,900 1,260 Climbing Boston Center
08:10PM 41.3419 -73.3719 North 398 458 20,400 1,440 Climbing Boston Center
08:11PM 41.4567 -73.3708 360° North 398 458 21,900 1,500 Climbing Boston Center
08:12PM 41.5775 -73.3725 359° North 398 458 23,500 1,380 Climbing Boston Center
08:13PM 41.6922 -73.3714 360° North 403 464 24,700 720 Climbing Boston Center
08:14PM 41.8131 -73.3675 North 411 473 25,000 120 Climbing Boston Center
08:15PM 41.9422 -73.3667 360° North 441 507 25,000  Level Boston Center
08:16PM 42.0464 -73.3628 North 455 524 25,000  Level Boston Center
08:17PM 42.1944 -73.3536 North 468 539 25,000  Level Boston Center
08:18PM 42.3383 -73.3586 359° North 474 545 25,000  Level Boston Center
08:19PM 42.4717 -73.3550 North 472 543 25,000  Level Boston Center
08:20PM 42.6072 -73.3542 360° North 472 543 25,000  Level Boston Center
08:21PM 42.7364 -73.3503 North 472 543 25,000  Level Boston Center
08:22PM 42.8678 -73.3494 360° North 472 543 25,000  Level Boston Center
08:23PM 42.9844 -73.3483 360° North 472 543 25,000  Level Boston Center
08:24PM 43.1136 -73.3586 357° North 472 543 25,000  Level Boston Center
08:25PM 43.2469 -73.3692 357° North 460 529 25,000  Level Boston Center
08:26PM 43.3739 -73.3856 355° North 447 514 25,000  Level Boston Center
08:27PM 43.4989 -73.3961 356° North 447 514 25,000  Level Boston Center
08:28PM 43.6239 -73.4094 356° North 447 514 25,000  Level Boston Center
08:29PM 43.7467 -73.4231 355° North 441 507 25,000  Level Boston Center
08:30PM 43.8675 -73.4364 355° North 441 507 25,000  Level Boston Center
08:31PM 43.9922 -73.4472 356° North 441 507 25,000  Level Boston Center
08:32PM 44.1131 -73.4608 355° North 441 507 25,000  Level Boston Center
08:33PM 44.2381 -73.4744 356° North 447 514 25,000  Level Boston Center
08:34PM 44.3628 -73.4883 355° North 442 509 25,000 -900 Level Boston Center
08:35PM 44.4897 -73.5022 356° North 442 509 23,200 -1,980 Descending Boston Center
08:36PM 44.6042 -73.5158 355° North 437 503 21,100 -2,160 Descending Boston Center
08:37PM 44.7167 -73.5267 356° North 417 480 19,000 -2,100 Descending Boston Center
08:38PM 44.8247 -73.5406 355° North 397 457 17,000 -2,280 Descending Boston Center
08:39PM 44.9289 -73.5511 356° North 385 443 14,500 -2,700 Descending Boston Center
08:40PM 45.0167 -73.5500 North 360 414 12,100 -2,040 Descending Montreal Center
08:41PM 45.1000 -73.5500 360° North 330 380 10,700 -1,080 Descending Montreal Center
08:42PM 45.2000 -73.5667 353° North 290 334 10,000 -960 Descending Montreal Center
08:43PM 45.2667 -73.5833 350° North 280 322 8,800 -1,200 Descending Montreal Center
08:44PM 45.3333 -73.5667 10° North 270 311 7,700 -1,140 Descending Montreal Center
08:45PM 45.4167 -73.5333 16° North 270 311 6,600 -1,260 Descending Montreal Center
08:46PM 45.4833 -73.5333 360° North 260 299 5,200 -1,380 Descending Montreal Center
08:47PM 45.5667 -73.5000 16° North 260 299 3,900 -1,140 Descending Montreal Center
08:48PM 45.6000 -73.5500 314° West 190 219 3,000 -480 Descending Montreal Center
08:49PM 45.5833 -73.6000 245° Southwest 150 173 3,000 -480 Level Montreal Center
08:50PM 45.5500 -73.6167 199° South 150 173 2,100 -840 Descending Montreal Center
08:51PM 45.5167 -73.6667 226° Southwest 120 138 1,400 -660 Descending Montreal Center
08:52PM 45.5000 -73.7000 235° Southwest 110 127 800 -600 Descending Montreal Center
08:53PM 45.4667 -73.7167 199° South 120 138 200 -360 Descending Montreal Center
08:54PM 45.4500 -73.7500 235° Southwest 40 46 100 -60 Descending Montreal Center
08:55PM 45.4500 -73.7500 235° Southwest 20 23 100  Level Montreal Center